sensor_id;sensor_type;location;lat;lon;timestamp;temperature;humidity
53268;DHT22;39156;51.176;6.738;2023-03-01T00:01:18;0.80;57.40
53268;DHT22;39156;51.176;6.738;2023-03-01T00:03:45;0.80;57.60
53268;DHT22;39156;51.176;6.738;2023-03-01T00:06:11;0.80;57.50
53268;DHT22;39156;51.176;6.738;2023-03-01T00:08:37;0.80;57.60
53268;DHT22;39156;51.176;6.738;2023-03-01T00:11:07;0.70;57.60
53268;DHT22;39156;51.176;6.738;2023-03-01T00:13:36;0.80;57.80
53268;DHT22;39156;51.176;6.738;2023-03-01T00:16:04;0.70;57.80
53268;DHT22;39156;51.176;6.738;2023-03-01T00:18:30;0.80;57.90
53268;DHT22;39156;51.176;6.738;2023-03-01T00:20:56;0.60;57.80
53268;DHT22;39156;51.176;6.738;2023-03-01T00:23:22;0.70;57.90
53268;DHT22;39156;51.176;6.738;2023-03-01T00:25:49;0.60;57.90
53268;DHT22;39156;51.176;6.738;2023-03-01T00:28:15;0.50;57.90
53268;DHT22;39156;51.176;6.738;2023-03-01T00:30:41;0.60;58.10
53268;DHT22;39156;51.176;6.738;2023-03-01T00:33:07;0.60;58.20
53268;DHT22;39156;51.176;6.738;2023-03-01T00:35:33;0.50;58.30
53268;DHT22;39156;51.176;6.738;2023-03-01T00:37:59;0.50;58.40
53268;DHT22;39156;51.176;6.738;2023-03-01T00:40:26;0.50;58.40
53268;DHT22;39156;51.176;6.738;2023-03-01T00:42:54;0.50;58.50
53268;DHT22;39156;51.176;6.738;2023-03-01T00:45:19;0.40;58.50
53268;DHT22;39156;51.176;6.738;2023-03-01T00:47:45;0.40;58.60
53268;DHT22;39156;51.176;6.738;2023-03-01T00:50:11;0.30;58.60
53268;DHT22;39156;51.176;6.738;2023-03-01T00:52:37;0.40;58.60
53268;DHT22;39156;51.176;6.738;2023-03-01T00:55:03;0.40;58.70
53268;DHT22;39156;51.176;6.738;2023-03-01T00:57:30;0.40;58.70
53268;DHT22;39156;51.176;6.738;2023-03-01T00:59:56;0.40;58.70
53268;DHT22;39156;51.176;6.738;2023-03-01T01:02:22;0.30;58.60
53268;DHT22;39156;51.176;6.738;2023-03-01T01:04:48;0.30;58.70
53268;DHT22;39156;51.176;6.738;2023-03-01T01:07:14;0.50;58.90
53268;DHT22;39156;51.176;6.738;2023-03-01T01:09:40;0.40;58.80
53268;DHT22;39156;51.176;6.738;2023-03-01T01:12:07;0.40;59.00
53268;DHT22;39156;51.176;6.738;2023-03-01T01:14:32;0.30;59.00
53268;DHT22;39156;51.176;6.738;2023-03-01T01:16:58;0.40;59.00
53268;DHT22;39156;51.176;6.738;2023-03-01T01:19:24;0.30;59.00
53268;DHT22;39156;51.176;6.738;2023-03-01T01:21:51;0.20;59.10
53268;DHT22;39156;51.176;6.738;2023-03-01T01:24:18;0.20;59.10
53268;DHT22;39156;51.176;6.738;2023-03-01T01:26:44;0.30;59.30
53268;DHT22;39156;51.176;6.738;2023-03-01T01:29:11;0.20;59.40
53268;DHT22;39156;51.176;6.738;2023-03-01T01:31:39;0.10;59.60
53268;DHT22;39156;51.176;6.738;2023-03-01T01:34:07;0.10;59.80
53268;DHT22;39156;51.176;6.738;2023-03-01T01:36:35;0.20;60.00
53268;DHT22;39156;51.176;6.738;2023-03-01T01:39:01;0.10;60.00
53268;DHT22;39156;51.176;6.738;2023-03-01T01:41:28;0.20;60.20
53268;DHT22;39156;51.176;6.738;2023-03-01T01:44:14;0.10;60.40
53268;DHT22;39156;51.176;6.738;2023-03-01T01:47:10;0.00;60.30
53268;DHT22;39156;51.176;6.738;2023-03-01T01:50:02;0.00;60.80
53268;DHT22;39156;51.176;6.738;2023-03-01T01:52:34;0.00;60.40
53268;DHT22;39156;51.176;6.738;2023-03-01T01:55:20;0.00;60.40
53268;DHT22;39156;51.176;6.738;2023-03-01T01:58:02;-0.20;60.60
53268;DHT22;39156;51.176;6.738;2023-03-01T02:00:30;0.00;60.60
53268;DHT22;39156;51.176;6.738;2023-03-01T02:02:59;-0.10;60.30
53268;DHT22;39156;51.176;6.738;2023-03-01T02:08:20;-0.10;60.70
53268;DHT22;39156;51.176;6.738;2023-03-01T02:10:49;-0.20;60.30
53268;DHT22;39156;51.176;6.738;2023-03-01T02:13:15;-0.10;60.40
53268;DHT22;39156;51.176;6.738;2023-03-01T02:15:41;-0.10;60.40
53268;DHT22;39156;51.176;6.738;2023-03-01T02:18:10;-0.10;60.50
53268;DHT22;39156;51.176;6.738;2023-03-01T02:20:40;-0.20;60.40
53268;DHT22;39156;51.176;6.738;2023-03-01T02:23:14;-0.10;60.50
53268;DHT22;39156;51.176;6.738;2023-03-01T02:25:44;-0.20;60.60
53268;DHT22;39156;51.176;6.738;2023-03-01T02:30:45;-0.20;60.70
53268;DHT22;39156;51.176;6.738;2023-03-01T02:33:33;-0.20;60.80
53268;DHT22;39156;51.176;6.738;2023-03-01T02:36:03;-0.30;60.80
53268;DHT22;39156;51.176;6.738;2023-03-01T02:38:32;-0.30;61.10
53268;DHT22;39156;51.176;6.738;2023-03-01T02:40:58;-0.30;61.10
53268;DHT22;39156;51.176;6.738;2023-03-01T02:43:28;0.20;61.50
53268;DHT22;39156;51.176;6.738;2023-03-01T02:46:06;-0.40;61.40
53268;DHT22;39156;51.176;6.738;2023-03-01T02:48:46;-0.40;61.70
53268;DHT22;39156;51.176;6.738;2023-03-01T02:56:41;-0.40;61.90
53268;DHT22;39156;51.176;6.738;2023-03-01T02:59:09;-0.60;61.80
53268;DHT22;39156;51.176;6.738;2023-03-01T03:01:35;-0.60;62.00
53268;DHT22;39156;51.176;6.738;2023-03-01T03:04:09;-0.60;62.10
53268;DHT22;39156;51.176;6.738;2023-03-01T03:06:36;-0.50;62.40
53268;DHT22;39156;51.176;6.738;2023-03-01T03:09:03;-0.60;62.20
53268;DHT22;39156;51.176;6.738;2023-03-01T03:11:29;-0.60;62.40
53268;DHT22;39156;51.176;6.738;2023-03-01T03:13:56;-0.60;62.40
53268;DHT22;39156;51.176;6.738;2023-03-01T03:16:22;-0.60;62.50
53268;DHT22;39156;51.176;6.738;2023-03-01T03:18:48;-0.60;62.40
53268;DHT22;39156;51.176;6.738;2023-03-01T03:21:14;-0.70;62.70
53268;DHT22;39156;51.176;6.738;2023-03-01T03:23:40;-0.60;63.00
53268;DHT22;39156;51.176;6.738;2023-03-01T03:26:06;-0.70;63.10
53268;DHT22;39156;51.176;6.738;2023-03-01T03:28:33;-0.70;63.30
53268;DHT22;39156;51.176;6.738;2023-03-01T03:31:00;-0.70;63.50
53268;DHT22;39156;51.176;6.738;2023-03-01T03:33:30;-0.80;63.60
53268;DHT22;39156;51.176;6.738;2023-03-01T03:35:56;-0.80;63.70
53268;DHT22;39156;51.176;6.738;2023-03-01T03:38:22;-0.80;63.80
53268;DHT22;39156;51.176;6.738;2023-03-01T03:40:51;-0.80;64.00
53268;DHT22;39156;51.176;6.738;2023-03-01T03:43:22;-0.80;64.00
53268;DHT22;39156;51.176;6.738;2023-03-01T03:45:50;-0.80;63.90
53268;DHT22;39156;51.176;6.738;2023-03-01T03:48:18;-1.00;63.80
53268;DHT22;39156;51.176;6.738;2023-03-01T03:50:51;-0.90;64.20
53268;DHT22;39156;51.176;6.738;2023-03-01T03:53:19;-0.90;64.50
53268;DHT22;39156;51.176;6.738;2023-03-01T03:55:45;-0.90;64.40
53268;DHT22;39156;51.176;6.738;2023-03-01T03:58:14;-0.80;64.60
53268;DHT22;39156;51.176;6.738;2023-03-01T04:00:42;-0.90;63.80
53268;DHT22;39156;51.176;6.738;2023-03-01T04:03:10;-0.90;64.60
53268;DHT22;39156;51.176;6.738;2023-03-01T04:05:38;-0.90;64.90
53268;DHT22;39156;51.176;6.738;2023-03-01T04:08:05;-0.90;64.80
53268;DHT22;39156;51.176;6.738;2023-03-01T04:10:39;-1.00;65.00
53268;DHT22;39156;51.176;6.738;2023-03-01T04:13:11;-1.00;65.10
53268;DHT22;39156;51.176;6.738;2023-03-01T04:15:38;-0.90;65.10
53268;DHT22;39156;51.176;6.738;2023-03-01T04:18:05;-1.00;64.90
53268;DHT22;39156;51.176;6.738;2023-03-01T04:20:33;-1.10;64.90
53268;DHT22;39156;51.176;6.738;2023-03-01T04:23:06;-1.10;65.10
53268;DHT22;39156;51.176;6.738;2023-03-01T04:25:39;-1.10;65.10
53268;DHT22;39156;51.176;6.738;2023-03-01T04:28:06;-1.00;65.00
53268;DHT22;39156;51.176;6.738;2023-03-01T04:30:33;-1.20;65.10
53268;DHT22;39156;51.176;6.738;2023-03-01T04:33:02;-1.20;65.10
53268;DHT22;39156;51.176;6.738;2023-03-01T04:35:29;-1.10;65.30
53268;DHT22;39156;51.176;6.738;2023-03-01T04:37:56;-1.80;64.60
53268;DHT22;39156;51.176;6.738;2023-03-01T04:40:21;-1.10;65.40
53268;DHT22;39156;51.176;6.738;2023-03-01T04:42:47;-1.20;65.40
53268;DHT22;39156;51.176;6.738;2023-03-01T04:45:13;-1.20;65.50
53268;DHT22;39156;51.176;6.738;2023-03-01T04:47:40;-1.10;65.50
53268;DHT22;39156;51.176;6.738;2023-03-01T04:50:06;-1.20;65.60
53268;DHT22;39156;51.176;6.738;2023-03-01T04:52:32;-1.10;65.00
53268;DHT22;39156;51.176;6.738;2023-03-01T04:54:58;-1.20;65.00
53268;DHT22;39156;51.176;6.738;2023-03-01T04:57:24;-1.20;65.20
53268;DHT22;39156;51.176;6.738;2023-03-01T04:59:50;-1.30;65.40
53268;DHT22;39156;51.176;6.738;2023-03-01T05:02:15;-1.30;65.50
53268;DHT22;39156;51.176;6.738;2023-03-01T05:04:41;-1.30;65.60
53268;DHT22;39156;51.176;6.738;2023-03-01T05:07:07;-1.20;65.80
53268;DHT22;39156;51.176;6.738;2023-03-01T05:09:32;-1.30;65.90
53268;DHT22;39156;51.176;6.738;2023-03-01T05:15:43;-1.40;66.60
53268;DHT22;39156;51.176;6.738;2023-03-01T05:18:09;-1.30;66.00
53268;DHT22;39156;51.176;6.738;2023-03-01T05:20:37;-1.10;66.40
53268;DHT22;39156;51.176;6.738;2023-03-01T05:23:03;-1.40;66.40
53268;DHT22;39156;51.176;6.738;2023-03-01T05:25:32;-1.40;66.50
53268;DHT22;39156;51.176;6.738;2023-03-01T05:28:02;-1.40;66.50
53268;DHT22;39156;51.176;6.738;2023-03-01T05:30:34;-1.50;66.60
53268;DHT22;39156;51.176;6.738;2023-03-01T05:33:00;-1.50;66.90
53268;DHT22;39156;51.176;6.738;2023-03-01T05:35:27;-1.40;66.90
53268;DHT22;39156;51.176;6.738;2023-03-01T05:37:52;-1.50;67.00
53268;DHT22;39156;51.176;6.738;2023-03-01T05:40:20;-1.50;67.10
53268;DHT22;39156;51.176;6.738;2023-03-01T05:42:49;-1.50;67.10
53268;DHT22;39156;51.176;6.738;2023-03-01T05:45:18;-1.50;67.20
53268;DHT22;39156;51.176;6.738;2023-03-01T05:47:45;-1.50;67.20
53268;DHT22;39156;51.176;6.738;2023-03-01T05:50:14;-1.60;67.30
53268;DHT22;39156;51.176;6.738;2023-03-01T05:52:48;-1.50;67.10
53268;DHT22;39156;51.176;6.738;2023-03-01T05:55:18;-1.40;66.80
53268;DHT22;39156;51.176;6.738;2023-03-01T05:57:45;-1.50;66.70
53268;DHT22;39156;51.176;6.738;2023-03-01T06:00:12;-1.50;66.40
53268;DHT22;39156;51.176;6.738;2023-03-01T06:02:39;-1.60;66.20
53268;DHT22;39156;51.176;6.738;2023-03-01T06:05:06;-1.40;66.10
53268;DHT22;39156;51.176;6.738;2023-03-01T06:07:34;-1.50;65.90
53268;DHT22;39156;51.176;6.738;2023-03-01T06:10:01;-1.40;65.80
53268;DHT22;39156;51.176;6.738;2023-03-01T06:12:30;-1.40;65.70
53268;DHT22;39156;51.176;6.738;2023-03-01T06:15:00;-1.50;65.70
53268;DHT22;39156;51.176;6.738;2023-03-01T06:17:29;-1.40;65.70
53268;DHT22;39156;51.176;6.738;2023-03-01T06:19:56;-1.40;65.70
53268;DHT22;39156;51.176;6.738;2023-03-01T06:22:22;-1.40;65.50
53268;DHT22;39156;51.176;6.738;2023-03-01T06:24:48;-1.30;65.50
53268;DHT22;39156;51.176;6.738;2023-03-01T06:27:14;-1.40;65.40
53268;DHT22;39156;51.176;6.738;2023-03-01T06:29:39;-1.30;66.10
53268;DHT22;39156;51.176;6.738;2023-03-01T06:32:05;-1.40;65.30
53268;DHT22;39156;51.176;6.738;2023-03-01T06:34:31;-1.40;65.30
53268;DHT22;39156;51.176;6.738;2023-03-01T06:36:57;-1.30;65.00
53268;DHT22;39156;51.176;6.738;2023-03-01T06:39:23;-1.20;65.10
53268;DHT22;39156;51.176;6.738;2023-03-01T06:41:48;-1.30;65.00
53268;DHT22;39156;51.176;6.738;2023-03-01T06:44:14;-1.20;64.90
53268;DHT22;39156;51.176;6.738;2023-03-01T06:46:40;-1.10;65.00
53268;DHT22;39156;51.176;6.738;2023-03-01T06:49:06;-1.20;64.90
53268;DHT22;39156;51.176;6.738;2023-03-01T06:51:37;-0.90;65.00
53268;DHT22;39156;51.176;6.738;2023-03-01T06:54:07;-1.10;64.90
53268;DHT22;39156;51.176;6.738;2023-03-01T06:56:35;-1.10;64.70
53268;DHT22;39156;51.176;6.738;2023-03-01T06:59:04;-0.90;64.40
53268;DHT22;39156;51.176;6.738;2023-03-01T07:01:30;-1.10;64.50
53268;DHT22;39156;51.176;6.738;2023-03-01T07:03:56;-0.30;64.40
53268;DHT22;39156;51.176;6.738;2023-03-01T07:06:22;-1.00;64.30
53268;DHT22;39156;51.176;6.738;2023-03-01T07:08:49;-0.90;64.30
53268;DHT22;39156;51.176;6.738;2023-03-01T07:11:15;-0.90;64.10
53268;DHT22;39156;51.176;6.738;2023-03-01T07:13:57;-0.90;64.10
53268;DHT22;39156;51.176;6.738;2023-03-01T07:16:25;-0.80;64.30
53268;DHT22;39156;51.176;6.738;2023-03-01T07:18:51;-0.30;64.40
53268;DHT22;39156;51.176;6.738;2023-03-01T07:21:16;-0.80;64.10
53268;DHT22;39156;51.176;6.738;2023-03-01T07:23:42;-0.70;64.00
53268;DHT22;39156;51.176;6.738;2023-03-01T07:26:08;-0.80;63.90
53268;DHT22;39156;51.176;6.738;2023-03-01T07:28:34;-0.70;63.90
53268;DHT22;39156;51.176;6.738;2023-03-01T07:31:04;-0.70;63.80
53268;DHT22;39156;51.176;6.738;2023-03-01T07:33:32;-0.70;63.70
53268;DHT22;39156;51.176;6.738;2023-03-01T07:36:00;-0.60;63.70
53268;DHT22;39156;51.176;6.738;2023-03-01T07:38:27;-0.60;63.70
53268;DHT22;39156;51.176;6.738;2023-03-01T07:40:54;-0.50;63.70
53268;DHT22;39156;51.176;6.738;2023-03-01T07:43:23;-0.50;63.70
53268;DHT22;39156;51.176;6.738;2023-03-01T07:45:48;-0.40;63.60
53268;DHT22;39156;51.176;6.738;2023-03-01T07:48:14;-0.40;63.50
53268;DHT22;39156;51.176;6.738;2023-03-01T07:50:40;-0.40;63.30
53268;DHT22;39156;51.176;6.738;2023-03-01T07:53:06;-0.30;63.10
53268;DHT22;39156;51.176;6.738;2023-03-01T07:55:31;-0.30;63.10
53268;DHT22;39156;51.176;6.738;2023-03-01T07:57:57;-0.30;62.90
53268;DHT22;39156;51.176;6.738;2023-03-01T08:00:23;-0.20;62.80
53268;DHT22;39156;51.176;6.738;2023-03-01T08:02:48;-0.10;62.90
53268;DHT22;39156;51.176;6.738;2023-03-01T08:05:14;-0.10;63.10
53268;DHT22;39156;51.176;6.738;2023-03-01T08:07:40;0.00;63.70
53268;DHT22;39156;51.176;6.738;2023-03-01T08:10:06;0.40;64.80
53268;DHT22;39156;51.176;6.738;2023-03-01T08:12:32;0.60;65.80
53268;DHT22;39156;51.176;6.738;2023-03-01T08:14:58;1.20;66.20
53268;DHT22;39156;51.176;6.738;2023-03-01T08:17:23;1.60;66.40
53268;DHT22;39156;51.176;6.738;2023-03-01T08:19:49;2.10;65.90
53268;DHT22;39156;51.176;6.738;2023-03-01T08:22:15;2.70;65.60
53268;DHT22;39156;51.176;6.738;2023-03-01T08:24:40;3.20;65.00
53268;DHT22;39156;51.176;6.738;2023-03-01T08:27:06;3.70;63.40
53268;DHT22;39156;51.176;6.738;2023-03-01T08:29:32;4.20;61.90
53268;DHT22;39156;51.176;6.738;2023-03-01T08:31:58;4.60;61.30
53268;DHT22;39156;51.176;6.738;2023-03-01T08:34:24;5.10;60.40
53268;DHT22;39156;51.176;6.738;2023-03-01T08:36:50;5.50;58.40
53268;DHT22;39156;51.176;6.738;2023-03-01T08:39:18;5.90;58.10
53268;DHT22;39156;51.176;6.738;2023-03-01T08:41:46;6.20;57.80
53268;DHT22;39156;51.176;6.738;2023-03-01T08:44:13;6.60;55.30
53268;DHT22;39156;51.176;6.738;2023-03-01T08:46:42;6.80;55.50
53268;DHT22;39156;51.176;6.738;2023-03-01T08:49:14;7.10;54.80
53268;DHT22;39156;51.176;6.738;2023-03-01T08:51:42;7.50;54.20
53268;DHT22;39156;51.176;6.738;2023-03-01T08:54:13;7.70;54.30
53268;DHT22;39156;51.176;6.738;2023-03-01T08:56:41;8.00;52.90
53268;DHT22;39156;51.176;6.738;2023-03-01T08:59:07;8.20;52.80
53268;DHT22;39156;51.176;6.738;2023-03-01T09:01:34;8.50;53.00
53268;DHT22;39156;51.176;6.738;2023-03-01T09:03:59;8.70;52.70
53268;DHT22;39156;51.176;6.738;2023-03-01T09:06:25;9.00;51.40
53268;DHT22;39156;51.176;6.738;2023-03-01T09:08:51;9.30;50.40
53268;DHT22;39156;51.176;6.738;2023-03-01T09:11:19;9.40;50.10
53268;DHT22;39156;51.176;6.738;2023-03-01T09:13:47;9.60;47.50
53268;DHT22;39156;51.176;6.738;2023-03-01T09:16:15;9.70;47.00
53268;DHT22;39156;51.176;6.738;2023-03-01T09:18:43;9.80;45.50
53268;DHT22;39156;51.176;6.738;2023-03-01T09:21:11;9.80;45.90
53268;DHT22;39156;51.176;6.738;2023-03-01T09:23:44;9.90;47.00
53268;DHT22;39156;51.176;6.738;2023-03-01T09:26:14;9.90;45.40
53268;DHT22;39156;51.176;6.738;2023-03-01T09:28:45;10.00;45.80
53268;DHT22;39156;51.176;6.738;2023-03-01T09:31:12;10.10;45.90
53268;DHT22;39156;51.176;6.738;2023-03-01T09:33:39;10.10;44.50
53268;DHT22;39156;51.176;6.738;2023-03-01T09:36:07;10.30;47.90
53268;DHT22;39156;51.176;6.738;2023-03-01T09:38:36;10.30;44.20
53268;DHT22;39156;51.176;6.738;2023-03-01T09:41:08;10.30;44.10
53268;DHT22;39156;51.176;6.738;2023-03-01T09:43:51;10.20;43.50
53268;DHT22;39156;51.176;6.738;2023-03-01T09:46:21;10.30;43.70
53268;DHT22;39156;51.176;6.738;2023-03-01T09:48:56;10.30;44.00
53268;DHT22;39156;51.176;6.738;2023-03-01T09:51:33;10.30;43.50
53268;DHT22;39156;51.176;6.738;2023-03-01T09:54:02;10.50;43.10
53268;DHT22;39156;51.176;6.738;2023-03-01T10:02:12;10.70;42.30
53268;DHT22;39156;51.176;6.738;2023-03-01T10:05:27;10.70;41.80
53268;DHT22;39156;51.176;6.738;2023-03-01T10:08:47;10.70;41.50
53268;DHT22;39156;51.176;6.738;2023-03-01T10:11:22;10.70;41.80
53268;DHT22;39156;51.176;6.738;2023-03-01T10:13:58;10.60;40.70
53268;DHT22;39156;51.176;6.738;2023-03-01T10:19:28;10.60;40.40
53268;DHT22;39156;51.176;6.738;2023-03-01T10:22:09;10.50;41.10
53268;DHT22;39156;51.176;6.738;2023-03-01T10:24:40;10.60;41.20
53268;DHT22;39156;51.176;6.738;2023-03-01T10:27:17;10.60;41.60
53268;DHT22;39156;51.176;6.738;2023-03-01T10:32:57;10.70;40.90
53268;DHT22;39156;51.176;6.738;2023-03-01T10:35:26;10.70;40.70
53268;DHT22;39156;51.176;6.738;2023-03-01T10:38:12;10.70;40.30
53268;DHT22;39156;51.176;6.738;2023-03-01T10:41:04;10.70;40.80
53268;DHT22;39156;51.176;6.738;2023-03-01T10:43:56;10.60;41.00
53268;DHT22;39156;51.176;6.738;2023-03-01T10:46:34;10.70;41.20
53268;DHT22;39156;51.176;6.738;2023-03-01T10:49:13;10.60;39.80
53268;DHT22;39156;51.176;6.738;2023-03-01T10:51:53;10.60;39.80
53268;DHT22;39156;51.176;6.738;2023-03-01T10:54:26;10.60;40.00
53268;DHT22;39156;51.176;6.738;2023-03-01T10:56:59;10.60;39.50
53268;DHT22;39156;51.176;6.738;2023-03-01T10:59:28;10.70;39.20
53268;DHT22;39156;51.176;6.738;2023-03-01T11:02:09;10.50;38.80
53268;DHT22;39156;51.176;6.738;2023-03-01T11:05:00;10.30;38.30
53268;DHT22;39156;51.176;6.738;2023-03-01T11:07:28;10.00;38.50
53268;DHT22;39156;51.176;6.738;2023-03-01T11:09:54;9.70;38.40
53268;DHT22;39156;51.176;6.738;2023-03-01T11:12:21;9.50;38.30
53268;DHT22;39156;51.176;6.738;2023-03-01T11:14:56;9.30;38.30
53268;DHT22;39156;51.176;6.738;2023-03-01T11:17:30;9.10;38.60
53268;DHT22;39156;51.176;6.738;2023-03-01T11:20:30;8.90;38.80
53268;DHT22;39156;51.176;6.738;2023-03-01T11:23:03;8.50;39.70
53268;DHT22;39156;51.176;6.738;2023-03-01T11:25:41;8.40;39.40
53268;DHT22;39156;51.176;6.738;2023-03-01T11:28:14;8.20;39.30
53268;DHT22;39156;51.176;6.738;2023-03-01T11:31:04;8.10;39.50
53268;DHT22;39156;51.176;6.738;2023-03-01T11:36:41;7.80;39.80
53268;DHT22;39156;51.176;6.738;2023-03-01T11:39:31;7.60;40.00
53268;DHT22;39156;51.176;6.738;2023-03-01T11:42:12;7.60;40.30
53268;DHT22;39156;51.176;6.738;2023-03-01T11:44:42;7.50;40.40
53268;DHT22;39156;51.176;6.738;2023-03-01T11:50:15;7.40;40.80
53268;DHT22;39156;51.176;6.738;2023-03-01T11:52:58;7.40;40.90
53268;DHT22;39156;51.176;6.738;2023-03-01T12:02:07;7.20;41.20
53268;DHT22;39156;51.176;6.738;2023-03-01T12:08:15;7.20;41.60
53268;DHT22;39156;51.176;6.738;2023-03-01T12:16:29;7.10;42.10
53268;DHT22;39156;51.176;6.738;2023-03-01T12:19:38;7.20;42.30
53268;DHT22;39156;51.176;6.738;2023-03-01T12:25:10;7.20;42.60
53268;DHT22;39156;51.176;6.738;2023-03-01T12:30:58;7.10;42.90
53268;DHT22;39156;51.176;6.738;2023-03-01T12:34:07;7.10;42.30
53268;DHT22;39156;51.176;6.738;2023-03-01T12:45:34;6.90;42.40
53268;DHT22;39156;51.176;6.738;2023-03-01T12:51:17;6.80;42.50
53268;DHT22;39156;51.176;6.738;2023-03-01T12:53:52;6.70;42.30
53268;DHT22;39156;51.176;6.738;2023-03-01T12:56:28;7.00;42.00
53268;DHT22;39156;51.176;6.738;2023-03-01T12:59:17;6.70;42.00
53268;DHT22;39156;51.176;6.738;2023-03-01T13:02:24;6.80;42.30
53268;DHT22;39156;51.176;6.738;2023-03-01T13:05:29;6.80;42.50
53268;DHT22;39156;51.176;6.738;2023-03-01T13:08:27;6.80;42.70
53268;DHT22;39156;51.176;6.738;2023-03-01T13:11:03;6.80;43.20
53268;DHT22;39156;51.176;6.738;2023-03-01T13:13:30;6.90;43.10
53268;DHT22;39156;51.176;6.738;2023-03-01T13:15:56;6.80;43.20
53268;DHT22;39156;51.176;6.738;2023-03-01T13:18:27;6.90;43.00
53268;DHT22;39156;51.176;6.738;2023-03-01T13:20:58;7.20;43.40
53268;DHT22;39156;51.176;6.738;2023-03-01T13:23:31;6.70;43.10
53268;DHT22;39156;51.176;6.738;2023-03-01T13:26:12;6.70;43.20
53268;DHT22;39156;51.176;6.738;2023-03-01T13:33:57;6.70;43.70
53268;DHT22;39156;51.176;6.738;2023-03-01T13:39:03;6.70;43.40
53268;DHT22;39156;51.176;6.738;2023-03-01T13:41:54;6.80;43.50
53268;DHT22;39156;51.176;6.738;2023-03-01T13:49:42;6.80;43.10
53268;DHT22;39156;51.176;6.738;2023-03-01T13:58:15;6.90;43.10
53268;DHT22;39156;51.176;6.738;2023-03-01T14:00:45;6.90;43.10
53268;DHT22;39156;51.176;6.738;2023-03-01T14:05:39;6.80;43.50
53268;DHT22;39156;51.176;6.738;2023-03-01T14:08:28;6.70;43.30
53268;DHT22;39156;51.176;6.738;2023-03-01T14:20:37;6.70;43.80
53268;DHT22;39156;51.176;6.738;2023-03-01T14:23:14;8.40;44.50
53268;DHT22;39156;51.176;6.738;2023-03-01T14:29:38;6.50;43.80
53268;DHT22;39156;51.176;6.738;2023-03-01T14:32:21;6.80;43.50
53268;DHT22;39156;51.176;6.738;2023-03-01T14:35:03;6.70;44.00
53268;DHT22;39156;51.176;6.738;2023-03-01T14:38:05;6.70;43.90
53268;DHT22;39156;51.176;6.738;2023-03-01T14:40:35;8.70;44.80
53268;DHT22;39156;51.176;6.738;2023-03-01T14:43:11;7.60;44.40
53268;DHT22;39156;51.176;6.738;2023-03-01T14:45:39;6.60;44.40
53268;DHT22;39156;51.176;6.738;2023-03-01T14:48:06;7.00;44.80
53268;DHT22;39156;51.176;6.738;2023-03-01T14:50:41;7.40;45.20
53268;DHT22;39156;51.176;6.738;2023-03-01T14:53:24;7.70;45.20
53268;DHT22;39156;51.176;6.738;2023-03-01T14:55:54;6.60;44.40
53268;DHT22;39156;51.176;6.738;2023-03-01T14:58:24;7.00;44.30
53268;DHT22;39156;51.176;6.738;2023-03-01T15:01:02;6.70;44.20
53268;DHT22;39156;51.176;6.738;2023-03-01T15:03:36;6.60;44.30
53268;DHT22;39156;51.176;6.738;2023-03-01T15:06:05;6.60;43.90
53268;DHT22;39156;51.176;6.738;2023-03-01T15:08:33;6.60;43.80
53268;DHT22;39156;51.176;6.738;2023-03-01T15:11:01;6.90;44.30
53268;DHT22;39156;51.176;6.738;2023-03-01T15:13:51;6.60;44.10
53268;DHT22;39156;51.176;6.738;2023-03-01T15:18:55;6.70;44.20
53268;DHT22;39156;51.176;6.738;2023-03-01T15:21:36;6.70;43.90
53268;DHT22;39156;51.176;6.738;2023-03-01T15:24:08;6.80;43.90
53268;DHT22;39156;51.176;6.738;2023-03-01T15:27:05;6.70;43.90
53268;DHT22;39156;51.176;6.738;2023-03-01T15:29:33;6.60;43.80
53268;DHT22;39156;51.176;6.738;2023-03-01T15:34:58;6.50;44.20
53268;DHT22;39156;51.176;6.738;2023-03-01T15:40:28;6.70;43.80
53268;DHT22;39156;51.176;6.738;2023-03-01T15:43:03;6.60;43.50
53268;DHT22;39156;51.176;6.738;2023-03-01T15:45:31;6.50;43.50
53268;DHT22;39156;51.176;6.738;2023-03-01T15:48:04;6.50;43.60
53268;DHT22;39156;51.176;6.738;2023-03-01T15:50:39;6.40;43.20
53268;DHT22;39156;51.176;6.738;2023-03-01T15:53:11;6.50;43.20
53268;DHT22;39156;51.176;6.738;2023-03-01T15:55:37;6.50;43.30
53268;DHT22;39156;51.176;6.738;2023-03-01T15:58:18;6.40;43.30
53268;DHT22;39156;51.176;6.738;2023-03-01T16:00:47;6.40;43.40
53268;DHT22;39156;51.176;6.738;2023-03-01T16:03:14;6.40;43.60
53268;DHT22;39156;51.176;6.738;2023-03-01T16:05:47;6.40;43.60
53268;DHT22;39156;51.176;6.738;2023-03-01T16:08:14;6.40;43.60
53268;DHT22;39156;51.176;6.738;2023-03-01T16:10:41;6.40;43.80
53268;DHT22;39156;51.176;6.738;2023-03-01T16:13:09;6.50;43.70
53268;DHT22;39156;51.176;6.738;2023-03-01T16:15:36;6.40;43.50
53268;DHT22;39156;51.176;6.738;2023-03-01T16:18:03;6.40;43.60
53268;DHT22;39156;51.176;6.738;2023-03-01T16:20:31;6.40;43.60
53268;DHT22;39156;51.176;6.738;2023-03-01T16:23:05;6.40;43.40
53268;DHT22;39156;51.176;6.738;2023-03-01T16:25:32;6.40;43.20
53268;DHT22;39156;51.176;6.738;2023-03-01T16:27:58;6.30;43.20
53268;DHT22;39156;51.176;6.738;2023-03-01T16:30:26;6.30;43.30
53268;DHT22;39156;51.176;6.738;2023-03-01T16:32:52;6.20;43.40
53268;DHT22;39156;51.176;6.738;2023-03-01T16:35:19;6.20;43.30
53268;DHT22;39156;51.176;6.738;2023-03-01T16:37:46;6.10;43.30
53268;DHT22;39156;51.176;6.738;2023-03-01T16:40:24;6.20;43.60
53268;DHT22;39156;51.176;6.738;2023-03-01T16:42:54;6.30;43.70
53268;DHT22;39156;51.176;6.738;2023-03-01T16:45:25;6.10;43.60
53268;DHT22;39156;51.176;6.738;2023-03-01T16:47:52;6.10;43.40
53268;DHT22;39156;51.176;6.738;2023-03-01T16:50:18;6.20;43.60
53268;DHT22;39156;51.176;6.738;2023-03-01T16:52:44;6.00;43.60
53268;DHT22;39156;51.176;6.738;2023-03-01T16:55:10;5.90;43.40
53268;DHT22;39156;51.176;6.738;2023-03-01T16:57:37;5.90;43.60
53268;DHT22;39156;51.176;6.738;2023-03-01T17:00:05;5.90;43.80
53268;DHT22;39156;51.176;6.738;2023-03-01T17:02:33;5.80;43.70
53268;DHT22;39156;51.176;6.738;2023-03-01T17:05:00;5.70;43.90
53268;DHT22;39156;51.176;6.738;2023-03-01T17:07:26;5.70;43.90
53268;DHT22;39156;51.176;6.738;2023-03-01T17:09:54;5.70;44.00
53268;DHT22;39156;51.176;6.738;2023-03-01T17:12:19;5.60;44.10
53268;DHT22;39156;51.176;6.738;2023-03-01T17:14:45;5.50;44.10
53268;DHT22;39156;51.176;6.738;2023-03-01T17:17:11;5.40;44.20
53268;DHT22;39156;51.176;6.738;2023-03-01T17:19:37;5.40;44.40
53268;DHT22;39156;51.176;6.738;2023-03-01T17:22:09;5.40;44.60
53268;DHT22;39156;51.176;6.738;2023-03-01T17:24:39;5.30;44.70
53268;DHT22;39156;51.176;6.738;2023-03-01T17:27:08;5.20;44.80
53268;DHT22;39156;51.176;6.738;2023-03-01T17:29:34;5.20;44.90
53268;DHT22;39156;51.176;6.738;2023-03-01T17:32:00;5.10;44.90
53268;DHT22;39156;51.176;6.738;2023-03-01T17:34:26;5.10;45.00
53268;DHT22;39156;51.176;6.738;2023-03-01T17:36:52;5.10;45.10
53268;DHT22;39156;51.176;6.738;2023-03-01T17:39:18;5.10;45.30
53268;DHT22;39156;51.176;6.738;2023-03-01T17:41:50;5.00;45.40
53268;DHT22;39156;51.176;6.738;2023-03-01T17:44:16;5.00;45.50
53268;DHT22;39156;51.176;6.738;2023-03-01T17:46:42;4.90;45.50
53268;DHT22;39156;51.176;6.738;2023-03-01T17:49:08;4.90;45.60
53268;DHT22;39156;51.176;6.738;2023-03-01T17:51:33;4.90;45.80